Time;durP1;ratioP1;P1;durP2;ratioP2;P2;SDS_P1;SDS_P2;PMS_P1;PMS_P2;Temp;Humidity;BMP_temperature;BMP_pressure;BME280_temperature;BME280_humidity;BME280_pressure;Samples;Min_cycle;Max_cycle;Signal;HPM_P1;HPM_P2
2023/08/08 00:08:22;;;;;;;9.60;8.45;;;;;;;27.23;54.02;100729.66;21062447;28;20044;-73
2023/08/08 00:18:23;;;;;;;9.18;7.93;;;;;;;27.18;53.44;100687.69;21079312;28;20036;-73
2023/08/08 00:28:25;;;;;;;9.07;7.35;;;;;;;27.43;53.50;100700.06;21060303;28;20452;-74
2023/08/08 00:38:26;;;;;;;8.68;7.68;;;;;;;27.42;53.35;100689.16;21078232;28;20028;-73
2023/08/08 00:48:27;;;;;;;9.30;8.15;;;;;;;27.64;53.11;100700.22;21076300;28;20119;-72
2023/08/08 00:58:29;;;;;;;9.23;7.32;;;;;;;27.71;53.11;100641.50;21075791;28;20040;-73
2023/08/08 01:08:44;;;;;;;9.35;6.85;;;;;;;27.59;52.82;100618.88;21077352;28;20055;-73
2023/08/08 01:18:47;;;;;;;7.15;6.45;;;;;;;27.83;52.58;100607.91;21080942;28;20476;-74
2023/08/08 01:28:54;;;;;;;8.00;6.97;;;;;;;27.80;52.63;100628.25;21076413;28;20032;-75
2023/08/08 01:39:02;;;;;;;7.10;6.40;;;;;;;27.92;52.31;100632.38;21082518;28;20495;-75
2023/08/08 01:49:04;;;;;;;7.05;6.03;;;;;;;27.98;52.16;100664.78;21092459;28;20040;-77
2023/08/08 01:59:05;;;;;;;7.55;6.78;;;;;;;28.02;52.07;100693.88;21091001;28;20052;-76
2023/08/08 02:09:10;;;;;;;6.90;6.20;;;;;;;28.05;52.05;100682.78;21071313;28;20049;-75
2023/08/08 02:19:11;;;;;;;6.80;6.10;;;;;;;28.08;51.80;100681.28;21089279;28;20055;-77
2023/08/08 02:29:12;;;;;;;6.32;5.72;;;;;;;28.08;51.54;100636.28;21091351;28;20085;-76
2023/08/08 02:39:14;;;;;;;6.68;5.90;;;;;;;28.08;51.77;100630.66;21087197;28;20031;-77
2023/08/08 02:49:18;;;;;;;6.15;5.55;;;;;;;28.11;51.39;100649.66;21088084;28;20016;-77
2023/08/08 02:59:21;;;;;;;5.72;5.10;;;;;;;28.16;51.46;100641.03;21104452;28;20040;-77
2023/08/08 03:09:22;;;;;;;6.00;5.45;;;;;;;28.19;51.42;100626.31;21097869;28;20032;-73
2023/08/08 03:19:24;;;;;;;5.78;5.28;;;;;;;27.71;51.48;100537.47;21086040;28;20028;-76
2023/08/08 03:29:25;;;;;;;6.03;5.38;;;;;;;28.21;51.57;100581.75;21084520;28;20036;-76
2023/08/08 03:39:26;;;;;;;5.30;4.80;;;;;;;28.24;51.47;100564.22;21089364;28;20043;-76
2023/08/08 03:49:28;;;;;;;5.25;4.68;;;;;;;28.25;51.20;100557.41;21128058;28;20036;-77
2023/08/08 03:59:29;;;;;;;5.68;5.05;;;;;;;28.23;51.20;100550.50;21090827;28;20694;-74
2023/08/08 04:09:32;;;;;;;5.55;4.63;;;;;;;28.19;51.36;100535.47;21084635;28;20048;-76
2023/08/08 04:19:34;;;;;;;5.32;4.78;;;;;;;28.29;51.10;100541.50;21086870;28;20078;-77
2023/08/08 04:29:39;;;;;;;5.28;4.65;;;;;;;28.28;51.04;100511.72;21089672;28;20036;-81
2023/08/08 04:39:40;;;;;;;5.13;4.63;;;;;;;28.24;51.40;100499.50;21083937;28;20044;-76
2023/08/08 04:49:41;;;;;;;4.78;4.30;;;;;;;28.26;51.32;100485.91;21078210;28;20446;-75
2023/08/08 04:59:43;;;;;;;4.57;4.18;;;;;;;28.29;51.11;100473.97;21078386;28;20121;-77
2023/08/08 05:09:44;;;;;;;4.13;3.72;;;;;;;28.31;51.03;100443.50;21078339;28;20093;-78
2023/08/08 05:19:46;;;;;;;4.57;4.10;;;;;;;28.34;50.95;100437.22;21093822;28;20036;-75
2023/08/08 05:29:47;;;;;;;4.10;3.70;;;;;;;28.34;50.94;100458.88;21095524;28;20028;-78
2023/08/08 05:39:48;;;;;;;4.15;3.67;;;;;;;28.34;51.07;100428.78;21092124;28;20445;-76
2023/08/08 05:49:51;;;;;;;4.43;4.03;;;;;;;28.34;50.93;100423.16;21093422;28;20476;-78
2023/08/08 05:59:55;;;;;;;3.50;3.20;;;;;;;28.28;51.35;100409.63;21092609;28;20040;-78
2023/08/08 06:09:56;;;;;;;3.55;3.25;;;;;;;28.22;50.86;100372.41;21091804;28;20425;-77
2023/08/08 06:19:58;;;;;;;3.95;3.55;;;;;;;28.34;51.01;100374.47;21091409;28;20020;-77
2023/08/08 06:30:00;;;;;;;3.80;3.08;;;;;;;28.34;51.12;100352.81;21091945;28;20028;-78
2023/08/08 06:40:04;;;;;;;3.63;3.05;;;;;;;28.28;51.15;100365.41;21075296;28;20483;-77
2023/08/08 06:50:07;;;;;;;3.28;2.97;;;;;;;28.36;50.93;100361.75;21088732;28;20047;-78
2023/08/08 07:00:11;;;;;;;3.45;3.10;;;;;;;28.33;50.88;100353.94;21086219;28;20048;-75
2023/08/08 07:10:13;;;;;;;2.83;2.47;;;;;;;28.34;51.11;100358.44;21087329;28;20052;-75
2023/08/08 07:20:14;;;;;;;3.28;3.00;;;;;;;28.35;51.20;100337.56;21084923;28;20402;-76
2023/08/08 07:30:15;;;;;;;3.05;2.75;;;;;;;28.36;51.25;100344.84;21083031;28;20086;-77
2023/08/08 07:40:18;;;;;;;4.25;2.70;;;;;;;28.37;51.13;100345.69;21081402;28;20391;-76
2023/08/08 07:50:20;;;;;;;3.53;3.08;;;;;;;28.30;51.07;100331.31;21062224;28;20032;-76
2023/08/08 08:00:21;;;;;;;3.05;2.72;;;;;;;28.33;50.99;100300.50;21079680;28;20048;-73
2023/08/08 08:10:23;;;;;;;2.78;2.58;;;;;;;28.35;51.22;100303.78;21064098;28;20062;-78
2023/08/08 08:20:25;;;;;;;3.25;2.55;;;;;;;28.36;51.04;100325.16;21073653;28;20441;-78
2023/08/08 08:30:27;;;;;;;2.45;2.25;;;;;;;28.39;51.19;100320.00;21064200;28;20061;-75
2023/08/08 08:40:34;;;;;;;3.33;2.47;;;;;;;28.34;51.11;100310.59;21081865;28;20339;-78
2023/08/08 08:50:39;;;;;;;2.45;2.25;;;;;;;28.27;51.19;100303.84;21113767;28;20028;-77
2023/08/08 09:00:41;;;;;;;2.45;2.25;;;;;;;28.35;51.17;100315.03;21165032;28;20137;-77
2023/08/08 09:10:43;;;;;;;2.80;2.50;;;;;;;28.34;51.22;100324.66;21136328;28;20038;-75
2023/08/08 09:20:51;;;;;;;2.85;2.55;;;;;;;28.35;51.41;100329.13;21147660;28;20032;-78
2023/08/08 09:30:53;;;;;;;2.28;2.08;;;;;;;28.38;51.14;100323.97;21096228;28;20035;-78
2023/08/08 09:40:57;;;;;;;2.67;2.20;;;;;;;28.36;51.25;100327.97;21093648;28;20043;-77
2023/08/08 09:51:02;;;;;;;2.85;2.42;;;;;;;28.29;51.44;100338.91;21094645;28;20554;-77
2023/08/08 10:01:05;;;;;;;2.40;2.20;;;;;;;28.37;51.32;100342.88;21090372;28;20055;-76
2023/08/08 10:11:10;;;;;;;2.10;1.90;;;;;;;28.32;51.28;100334.59;21089461;28;20056;-77
2023/08/08 10:21:14;;;;;;;2.10;1.90;;;;;;;28.24;51.35;100361.66;21070611;28;20040;-74
2023/08/08 10:31:24;;;;;;;2.10;1.90;;;;;;;28.32;51.36;100374.81;21070306;28;20032;-77
2023/08/08 10:41:28;;;;;;;2.20;2.00;;;;;;;28.36;51.35;100392.69;21088519;28;20036;-78
2023/08/08 10:51:48;;;;;;;2.10;1.90;;;;;;;28.14;51.55;100370.50;21086151;28;20044;-78
2023/08/08 11:01:51;;;;;;;2.22;2.03;;;;;;;28.32;51.63;100405.78;21085328;28;20040;-77
2023/08/08 11:11:53;;;;;;;1.90;1.80;;;;;;;28.30;51.35;100413.72;21084823;28;20040;-76
2023/08/08 11:21:54;;;;;;;1.65;1.55;;;;;;;28.32;51.30;100425.47;21074045;28;20040;-77
2023/08/08 11:32:05;;;;;;;2.00;1.90;;;;;;;28.21;51.43;100427.03;21086054;28;20078;-77
2023/08/08 11:42:08;;;;;;;2.17;1.88;;;;;;;28.33;51.28;100454.44;21086444;28;20047;-78
2023/08/08 11:52:09;;;;;;;3.15;1.90;;;;;;;28.31;51.33;100443.50;21085588;28;20039;-77
2023/08/08 12:02:13;;;;;;;1.88;1.75;;;;;;;28.32;51.50;100445.16;21065487;28;20044;-78
2023/08/08 12:12:19;;;;;;;1.83;1.73;;;;;;;28.28;51.44;100444.19;21089238;28;20391;-77
2023/08/08 12:22:23;;;;;;;1.97;1.83;;;;;;;28.35;51.32;100469.00;21084202;28;20061;-75
2023/08/08 12:32:28;;;;;;;2.10;1.60;;;;;;;28.34;51.58;100465.34;21081639;28;20036;-78
2023/08/08 12:42:29;;;;;;;2.00;1.75;;;;;;;28.31;51.42;100480.06;21080212;28;20078;-76
2023/08/08 12:52:31;;;;;;;2.15;1.95;;;;;;;28.20;51.31;100453.53;21079962;28;20036;-78
2023/08/08 13:02:34;;;;;;;1.88;1.70;;;;;;;28.35;51.44;100471.81;21080766;28;20036;-79
2023/08/08 13:12:35;;;;;;;1.55;1.45;;;;;;;28.36;51.29;100463.03;21019596;28;20040;-78
2023/08/08 13:22:37;;;;;;;2.08;1.60;;;;;;;28.33;51.58;100460.88;21009836;28;20033;-78
2023/08/08 13:32:39;;;;;;;1.65;1.55;;;;;;;28.26;51.32;100435.25;21000429;28;20024;-79
2023/08/08 13:42:41;;;;;;;1.50;1.40;;;;;;;28.34;51.35;100456.06;21021263;28;20412;-77
2023/08/08 13:52:42;;;;;;;1.75;1.60;;;;;;;28.14;51.39;100412.72;21015760;28;20052;-77
2023/08/08 14:02:44;;;;;;;1.70;1.60;;;;;;;28.35;51.54;100440.84;21075632;28;20036;-78
2023/08/08 14:12:49;;;;;;;1.60;1.50;;;;;;;28.39;51.04;100443.81;21116283;28;20031;-78
2023/08/08 14:22:53;;;;;;;1.95;1.75;;;;;;;28.34;51.35;100453.25;21102232;28;20073;-78
2023/08/08 14:32:54;;;;;;;1.80;1.70;;;;;;;28.34;51.27;100451.28;21120182;28;20032;-77
2023/08/08 14:42:56;;;;;;;1.85;1.60;;;;;;;28.40;51.25;100467.97;21149324;28;20040;-79
2023/08/08 14:53:00;;;;;;;1.90;1.80;;;;;;;28.34;51.28;100465.34;21142212;28;20032;-79
2023/08/08 15:03:01;;;;;;;1.88;1.77;;;;;;;28.36;51.38;100463.03;21044570;28;20448;-78
2023/08/08 15:13:05;;;;;;;2.10;1.90;;;;;;;28.35;51.25;100455.75;21024675;28;20036;-79
2023/08/08 15:23:10;;;;;;;2.00;1.90;;;;;;;28.37;51.46;100469.50;21013279;28;20037;-81
2023/08/08 15:33:14;;;;;;;2.08;1.52;;;;;;;27.40;51.38;100343.03;21033644;28;20087;-79
2023/08/08 15:43:15;;;;;;;1.88;1.70;;;;;;;28.27;51.26;100453.81;20990406;28;20446;-80
2023/08/08 15:53:16;;;;;;;1.60;1.50;;;;;;;28.43;51.18;100461.66;20975216;28;20106;-80
2023/08/08 16:03:18;;;;;;;2.03;1.80;;;;;;;28.41;51.28;100441.47;21016278;28;20110;-80
2023/08/08 16:13:20;;;;;;;3.58;1.85;;;;;;;28.40;51.23;100440.66;21003888;28;20052;-80
2023/08/08 16:23:21;;;;;;;3.75;1.70;;;;;;;28.29;51.39;100412.06;20967908;28;20045;-80
2023/08/08 16:33:25;;;;;;;5.03;1.67;;;;;;;28.42;51.17;100438.31;21016845;28;20048;-77
2023/08/08 16:43:31;;;;;;;6.70;2.10;;;;;;;28.44;51.34;100444.41;21114350;28;20387;-78
2023/08/08 16:53:32;;;;;;;19.57;2.90;;;;;;;28.43;51.54;100445.59;21012457;28;20033;-79
2023/08/08 17:03:34;;;;;;;38.83;4.63;;;;;;;28.31;51.91;100426.59;21057680;28;20253;-79
2023/08/08 17:13:39;;;;;;;54.40;4.40;;;;;;;28.48;52.46;100436.94;21029964;28;20039;-76
2023/08/08 17:23:40;;;;;;;76.13;5.90;;;;;;;28.44;52.46;100440.78;21075356;28;20176;-74
2023/08/08 17:33:42;;;;;;;65.30;5.18;;;;;;;28.42;52.63;100434.69;21071875;28;20544;-76
2023/08/08 17:43:46;;;;;;;59.60;5.13;;;;;;;28.43;52.86;100437.16;21090497;28;20040;-75
2023/08/08 17:53:47;;;;;;;62.13;5.43;;;;;;;28.36;52.67;100415.19;21088605;28;20044;-76
2023/08/08 18:03:49;;;;;;;44.45;4.22;;;;;;;28.51;52.66;100410.09;21090911;28;20059;-76
2023/08/08 18:13:51;;;;;;;121.22;7.38;;;;;;;28.15;50.27;100433.22;21093720;28;20532;-77
2023/08/08 18:23:53;;;;;;;65.30;6.18;;;;;;;27.67;50.02;100429.69;21089715;28;20032;-78
2023/08/08 18:33:59;;;;;;;39.47;4.43;;;;;;;27.38;49.52;100438.09;21088365;28;20048;-75
2023/08/08 18:44:00;;;;;;;40.27;3.93;;;;;;;27.26;50.30;100450.03;21062347;28;20105;-75
2023/08/08 18:54:04;;;;;;;28.02;3.40;;;;;;;27.20;50.63;100446.59;21006114;28;20097;-75
2023/08/08 19:04:06;;;;;;;59.22;5.22;;;;;;;27.10;50.99;100480.66;21028311;28;20040;-77
2023/08/08 19:14:08;;;;;;;56.38;5.07;;;;;;;26.99;51.20;100465.31;21066628;28;20094;-76
2023/08/08 19:24:09;;;;;;;31.70;4.28;;;;;;;27.06;51.21;100465.59;21086423;28;20025;-75
2023/08/08 19:34:10;;;;;;;399.75;24.13;;;;;;;27.01;51.40;100465.78;21087060;28;20043;-74
2023/08/08 19:44:12;;;;;;;215.93;14.23;;;;;;;26.86;51.52;100445.50;21076935;28;20036;-75
2023/08/08 19:54:13;;;;;;;79.85;7.70;;;;;;;26.85;50.46;100471.94;21086616;28;20445;-74
2023/08/08 20:04:20;;;;;;;56.08;5.93;;;;;;;26.68;50.43;100471.97;21095226;28;20048;-75
2023/08/08 20:14:31;;;;;;;57.47;6.00;;;;;;;26.44;49.57;100447.22;21095593;28;20395;-75
2023/08/08 20:24:33;;;;;;;33.75;4.38;;;;;;;26.53;50.77;100453.66;21079398;28;20055;-75
2023/08/08 20:34:34;;;;;;;17.70;4.38;;;;;;;26.51;50.58;100452.31;21010709;28;20054;-63
2023/08/08 20:44:35;;;;;;;30.10;4.97;;;;;;;26.21;51.27;100404.44;21055962;28;20066;-62
2023/08/08 20:54:37;;;;;;;36.42;5.25;;;;;;;26.48;53.16;100405.28;21059540;28;20495;-61
2023/08/08 21:04:38;;;;;;;32.88;4.95;;;;;;;26.49;54.08;100401.34;21045088;28;20045;-63
2023/08/08 21:14:39;;;;;;;28.33;5.25;;;;;;;26.43;54.29;100380.16;20992326;28;20116;-63
2023/08/08 21:24:41;;;;;;;23.40;5.70;;;;;;;26.46;54.16;100396.38;21058552;28;20077;-63
2023/08/08 21:34:42;;;;;;;22.17;5.28;;;;;;;26.40;53.95;100384.47;21066859;28;20048;-61
2023/08/08 21:44:44;;;;;;;18.33;4.70;;;;;;;26.42;56.92;100386.94;21073067;28;20044;-62
2023/08/08 21:54:45;;;;;;;20.65;5.13;;;;;;;26.70;57.53;100379.81;21069130;28;20040;-63
2023/08/08 22:04:47;;;;;;;16.58;4.35;;;;;;;26.89;56.77;100396.28;21087718;28;20047;-63
2023/08/08 22:14:51;;;;;;;9.20;4.05;;;;;;;27.03;56.09;100416.56;21086647;28;20475;-63
2023/08/08 22:24:53;;;;;;;7.40;4.00;;;;;;;27.16;55.45;100428.75;21085921;28;20545;-61
2023/08/08 22:34:54;;;;;;;10.65;4.57;;;;;;;27.22;55.10;100418.19;21084583;28;20480;-62
2023/08/08 22:44:56;;;;;;;7.30;3.97;;;;;;;27.34;54.91;100432.34;21085104;28;20047;-63
2023/08/08 22:54:57;;;;;;;5.47;3.75;;;;;;;27.41;54.71;100437.44;21083639;28;20044;-62
2023/08/08 23:04:58;;;;;;;6.07;3.97;;;;;;;27.45;54.54;100444.03;21082791;28;20073;-62
2023/08/08 23:15:03;;;;;;;5.55;3.33;;;;;;;27.51;54.19;100442.69;21082483;28;20200;-63
2023/08/08 23:25:05;;;;;;;4.53;3.72;;;;;;;27.46;54.21;100434.44;21080891;28;20078;-62
2023/08/08 23:35:07;;;;;;;6.68;3.92;;;;;;;27.63;53.85;100462.47;21081776;28;20028;-62
2023/08/08 23:45:10;;;;;;;6.00;3.95;;;;;;;27.66;53.79;100467.38;21079225;28;20047;-62
2023/08/08 23:55:15;;;;;;;6.30;3.60;;;;;;;27.72;53.58;100482.94;21044417;28;20040;-62
